createdAt,value
2023-03-25T00:01:18.791Z,15.42
2023-03-25T00:03:53.344Z,15.84
2023-03-25T00:06:20.764Z,15.01
2023-03-25T00:08:48.299Z,15.28
2023-03-25T00:11:15.991Z,15.20
2023-03-25T00:13:43.215Z,15.04
2023-03-25T00:16:11.281Z,14.90
2023-03-25T00:18:38.508Z,14.98
2023-03-25T00:21:07.413Z,14.84
2023-03-25T00:23:34.961Z,14.90
2023-03-25T00:26:03.227Z,14.81
2023-03-25T00:28:31.249Z,15.21
2023-03-25T00:30:59.632Z,15.52
2023-03-25T00:33:27.128Z,15.22
2023-03-25T00:35:59.223Z,15.36
2023-03-25T00:38:33.465Z,15.23
2023-03-25T00:41:14.334Z,14.69
2023-03-25T00:43:41.820Z,14.69
2023-03-25T00:46:09.111Z,14.78
2023-03-25T00:48:36.640Z,15.18
2023-03-25T00:51:08.632Z,14.59
2023-03-25T00:53:36.504Z,14.72
2023-03-25T00:56:04.544Z,14.48
2023-03-25T00:58:31.730Z,14.67
2023-03-25T01:00:59.512Z,14.83
2023-03-25T01:03:28.971Z,15.09
2023-03-25T01:05:58.005Z,15.08
2023-03-25T01:08:25.590Z,15.55
2023-03-25T01:10:54.430Z,14.57
2023-03-25T01:13:22.418Z,14.49
2023-03-25T01:15:51.337Z,15.15
2023-03-25T01:18:19.003Z,15.37
2023-03-25T01:20:46.167Z,14.55
2023-03-25T01:23:13.472Z,15.18
2023-03-25T01:25:40.972Z,15.02
2023-03-25T01:28:08.146Z,15.12
2023-03-25T01:30:35.768Z,15.21
2023-03-25T01:33:03.348Z,14.88
2023-03-25T01:35:30.660Z,14.90
2023-03-25T01:37:57.854Z,14.99
2023-03-25T01:40:25.385Z,15.07
2023-03-25T01:42:53.034Z,14.85
2023-03-25T01:45:21.875Z,14.49
2023-03-25T01:47:50.395Z,14.84
2023-03-25T01:50:18.275Z,14.60
2023-03-25T01:52:45.976Z,14.46
2023-03-25T01:55:13.449Z,14.57
2023-03-25T01:57:41.784Z,14.59
2023-03-25T02:00:09.650Z,14.47
2023-03-25T02:02:40.340Z,14.26
2023-03-25T02:05:17.914Z,13.99
2023-03-25T02:07:47.983Z,13.80
2023-03-25T02:10:16.189Z,13.62
2023-03-25T02:12:45.872Z,13.47
2023-03-25T02:15:14.362Z,13.74
2023-03-25T02:17:52.249Z,13.71
2023-03-25T02:20:24.613Z,13.54
2023-03-25T02:23:01.961Z,12.70
2023-03-25T02:25:35.452Z,13.42
2023-03-25T02:28:14.656Z,13.55
2023-03-25T02:30:48.485Z,13.35
2023-03-25T02:33:34.382Z,12.99
2023-03-25T02:36:25.557Z,12.86
2023-03-25T02:38:53.575Z,13.29
2023-03-25T02:41:33.001Z,12.69
2023-03-25T02:44:05.271Z,13.05
2023-03-25T02:46:33.098Z,13.53
2023-03-25T02:49:11.001Z,13.60
2023-03-25T02:51:44.274Z,13.51
2023-03-25T02:54:12.682Z,13.34
2023-03-25T02:56:40.644Z,13.31
2023-03-25T02:59:08.171Z,13.19
2023-03-25T03:01:35.809Z,12.68
2023-03-25T03:04:03.671Z,12.93
2023-03-25T03:06:30.881Z,13.17
2023-03-25T03:09:04.197Z,13.10
2023-03-25T03:11:56.269Z,12.72
2023-03-25T03:14:29.546Z,13.08
2023-03-25T03:17:18.420Z,13.06
2023-03-25T03:19:48.584Z,12.91
2023-03-25T03:22:22.163Z,12.89
2023-03-25T03:24:51.504Z,11.81
2023-03-25T03:27:25.193Z,12.25
2023-03-25T03:29:53.205Z,11.88
2023-03-25T03:32:28.717Z,12.37
2023-03-25T03:34:57.426Z,12.51
2023-03-25T03:37:30.120Z,12.30
2023-03-25T03:39:57.456Z,12.36
2023-03-25T03:42:30.451Z,12.10
2023-03-25T03:45:00.660Z,12.10
2023-03-25T03:47:32.925Z,12.41
2023-03-25T03:50:00.628Z,12.59
2023-03-25T03:52:30.190Z,12.42
2023-03-25T03:54:58.535Z,11.94
2023-03-25T03:57:27.098Z,12.09
2023-03-25T03:59:58.852Z,11.77
2023-03-25T04:02:32.662Z,11.48
2023-03-25T04:05:00.758Z,11.71
2023-03-25T04:07:39.190Z,12.10
2023-03-25T04:10:20.473Z,12.18
2023-03-25T04:12:51.757Z,11.63
2023-03-25T04:15:19.205Z,12.47
2023-03-25T04:17:48.227Z,12.04
2023-03-25T04:20:16.359Z,12.21
2023-03-25T04:22:45.713Z,11.46
2023-03-25T04:25:14.007Z,11.49
2023-03-25T04:27:41.255Z,11.39
2023-03-25T04:30:09.336Z,12.15
2023-03-25T04:32:36.536Z,11.86
2023-03-25T04:35:04.008Z,12.50
2023-03-25T04:37:33.855Z,11.91
2023-03-25T04:40:01.255Z,11.80
2023-03-25T04:42:32.968Z,12.33
2023-03-25T04:45:00.807Z,11.72
2023-03-25T04:47:28.068Z,11.44
2023-03-25T04:49:55.620Z,12.25
2023-03-25T04:52:23.101Z,11.74
2023-03-25T04:54:50.281Z,11.73
2023-03-25T04:57:17.505Z,12.06
2023-03-25T04:59:44.977Z,12.11
2023-03-25T05:02:13.695Z,11.33
2023-03-25T05:04:47.624Z,11.63
2023-03-25T05:07:16.615Z,11.85
2023-03-25T05:09:44.021Z,11.67
2023-03-25T05:12:11.669Z,11.28
2023-03-25T05:14:39.288Z,11.35
2023-03-25T05:17:06.472Z,11.39
2023-03-25T05:19:35.303Z,11.49
2023-03-25T05:22:04.697Z,11.65
2023-03-25T05:24:32.002Z,12.11
2023-03-25T05:27:02.711Z,11.68
2023-03-25T05:29:34.083Z,11.77
2023-03-25T05:32:01.429Z,11.71
2023-03-25T05:34:30.072Z,11.74
2023-03-25T05:36:57.522Z,11.55
2023-03-25T05:39:26.043Z,11.66
2023-03-25T05:41:55.888Z,12.21
2023-03-25T05:44:23.453Z,12.10
2023-03-25T05:46:50.634Z,11.58
2023-03-25T05:49:17.854Z,11.70
2023-03-25T05:51:45.800Z,11.66
2023-03-25T05:54:13.000Z,11.99
2023-03-25T05:56:41.389Z,11.06
2023-03-25T05:59:09.121Z,11.30
2023-03-25T06:01:39.431Z,11.22
2023-03-25T06:04:10.271Z,11.10
2023-03-25T06:06:37.908Z,11.18
2023-03-25T06:09:05.573Z,11.33
2023-03-25T06:11:38.484Z,11.58
2023-03-25T06:14:06.556Z,11.35
2023-03-25T06:16:35.487Z,11.61
2023-03-25T06:19:03.004Z,11.68
2023-03-25T06:21:35.561Z,11.55
2023-03-25T06:24:03.109Z,11.32
2023-03-25T06:26:30.353Z,11.22
2023-03-25T06:28:58.549Z,11.41
2023-03-25T06:31:33.499Z,11.34
2023-03-25T06:34:01.567Z,11.36
2023-03-25T06:36:29.519Z,11.40
2023-03-25T06:38:58.469Z,11.31
2023-03-25T06:41:26.070Z,11.18
2023-03-25T06:43:54.441Z,11.30
2023-03-25T06:46:25.392Z,11.20
2023-03-25T06:48:54.632Z,11.23
2023-03-25T06:51:22.871Z,11.87
2023-03-25T06:53:50.248Z,11.49
2023-03-25T06:56:18.683Z,12.12
2023-03-25T06:58:46.303Z,11.98
2023-03-25T07:01:13.578Z,12.87
2023-03-25T07:03:41.298Z,11.98
2023-03-25T07:06:08.736Z,12.62
2023-03-25T07:08:36.173Z,12.15
2023-03-25T07:11:07.316Z,11.77
2023-03-25T07:13:35.684Z,12.00
2023-03-25T07:16:03.265Z,12.19
2023-03-25T07:18:30.933Z,12.71
2023-03-25T07:20:58.285Z,12.40
2023-03-25T07:23:25.656Z,12.51
2023-03-25T07:25:53.387Z,13.32
2023-03-25T07:28:20.745Z,12.88
2023-03-25T07:30:47.980Z,12.52
2023-03-25T07:33:16.173Z,12.72
2023-03-25T07:35:43.478Z,12.68
2023-03-25T07:38:10.691Z,12.89
2023-03-25T07:40:38.307Z,13.32
2023-03-25T07:43:05.747Z,13.39
2023-03-25T07:45:55.968Z,13.53
2023-03-25T07:48:22.803Z,13.27
2023-03-25T07:50:51.028Z,13.48
2023-03-25T07:53:18.245Z,14.03
2023-03-25T07:55:46.518Z,14.05
2023-03-25T07:58:13.716Z,14.09
2023-03-25T08:00:41.070Z,13.84
2023-03-25T08:03:10.401Z,14.33
2023-03-25T08:05:38.026Z,13.63
2023-03-25T08:08:06.028Z,14.59
2023-03-25T08:10:35.114Z,14.04
2023-03-25T08:13:02.298Z,14.27
2023-03-25T08:15:29.638Z,14.15
2023-03-25T08:17:57.488Z,14.28
2023-03-25T08:20:27.038Z,14.45
2023-03-25T08:22:54.266Z,14.40
2023-03-25T08:25:21.952Z,14.74
2023-03-25T08:27:49.133Z,14.43
2023-03-25T08:30:17.213Z,15.45
2023-03-25T08:32:46.356Z,16.40
2023-03-25T08:35:13.671Z,16.46
2023-03-25T08:37:42.348Z,16.60
2023-03-25T08:40:10.280Z,17.04
2023-03-25T08:42:38.655Z,17.27
2023-03-25T08:45:07.107Z,16.76
2023-03-25T08:47:34.838Z,16.70
2023-03-25T08:50:02.499Z,16.28
2023-03-25T08:52:30.990Z,15.75
2023-03-25T08:54:58.651Z,16.21
2023-03-25T08:57:26.260Z,15.38
2023-03-25T08:59:53.675Z,15.82
2023-03-25T09:02:21.359Z,15.70
2023-03-25T09:04:48.988Z,15.77
2023-03-25T09:07:19.761Z,15.68
2023-03-25T09:09:47.613Z,15.40
2023-03-25T09:12:15.421Z,16.01
2023-03-25T09:14:43.043Z,15.70
2023-03-25T09:17:11.443Z,15.84
2023-03-25T09:19:38.931Z,16.18
2023-03-25T09:22:07.407Z,16.52
2023-03-25T09:24:37.681Z,16.67
2023-03-25T09:27:05.223Z,16.05
2023-03-25T09:29:32.832Z,15.56
2023-03-25T09:32:01.110Z,16.12
2023-03-25T09:34:28.943Z,17.30
2023-03-25T09:36:56.592Z,16.33
2023-03-25T09:39:24.719Z,16.80
2023-03-25T09:42:20.844Z,16.80
2023-03-25T09:44:58.425Z,16.88
2023-03-25T09:47:26.862Z,16.95
2023-03-25T09:50:00.242Z,16.94
2023-03-25T09:52:39.395Z,16.73
2023-03-25T09:55:09.810Z,16.35
2023-03-25T09:57:46.195Z,17.09
2023-03-25T10:00:19.204Z,17.05
2023-03-25T10:02:52.380Z,16.16
2023-03-25T10:05:46.170Z,16.18
2023-03-25T10:08:38.878Z,16.78
2023-03-25T10:11:23.500Z,16.86
2023-03-25T10:14:11.573Z,16.31
2023-03-25T10:16:44.930Z,15.73
2023-03-25T10:19:37.017Z,16.68
2023-03-25T10:22:09.403Z,16.14
2023-03-25T10:24:43.056Z,15.88
2023-03-25T10:27:24.145Z,16.06
2023-03-25T10:30:03.578Z,16.66
2023-03-25T10:32:42.609Z,17.13
2023-03-25T10:35:36.302Z,16.67
2023-03-25T10:38:24.311Z,17.04
2023-03-25T10:40:59.760Z,17.68
2023-03-25T10:43:33.797Z,16.89
2023-03-25T10:46:25.651Z,16.46
2023-03-25T10:48:53.232Z,16.97
2023-03-25T10:51:24.627Z,17.73
2023-03-25T10:53:53.429Z,17.71
2023-03-25T10:56:27.580Z,17.68
2023-03-25T10:58:57.650Z,16.99
2023-03-25T11:01:37.249Z,17.34
2023-03-25T11:04:10.628Z,16.78
2023-03-25T11:06:41.212Z,16.92
2023-03-25T11:09:15.460Z,16.87
2023-03-25T11:11:47.600Z,16.50
2023-03-25T11:14:35.153Z,16.29
2023-03-25T11:17:05.798Z,16.75
2023-03-25T11:19:39.898Z,16.21
2023-03-25T11:22:24.165Z,16.28
2023-03-25T11:24:57.289Z,16.21
2023-03-25T11:27:28.622Z,16.39
2023-03-25T11:30:00.972Z,16.14
2023-03-25T11:33:04.809Z,16.06
2023-03-25T11:35:38.090Z,15.83
2023-03-25T11:38:23.690Z,16.43
2023-03-25T11:40:53.912Z,15.77
2023-03-25T11:43:23.408Z,15.64
2023-03-25T11:45:51.268Z,15.45
2023-03-25T11:48:21.886Z,15.84
2023-03-25T11:51:01.659Z,15.69
2023-03-25T11:53:32.001Z,16.28
2023-03-25T11:56:04.635Z,15.89
2023-03-25T11:58:34.728Z,15.93
2023-03-25T12:01:11.216Z,15.33
2023-03-25T12:03:39.848Z,15.36
2023-03-25T12:06:12.362Z,15.13
2023-03-25T12:08:44.468Z,14.98
2023-03-25T12:11:21.311Z,14.99
2023-03-25T12:14:07.386Z,15.01
2023-03-25T12:16:59.742Z,14.87
2023-03-25T12:19:45.975Z,15.06
2023-03-25T12:22:23.283Z,15.00
2023-03-25T12:24:57.316Z,15.70
2023-03-25T12:27:33.925Z,15.05
2023-03-25T12:30:07.512Z,15.77
2023-03-25T12:32:53.289Z,16.15
2023-03-25T12:35:54.656Z,15.94
2023-03-25T12:38:38.384Z,15.60
2023-03-25T12:41:23.348Z,15.65
2023-03-25T12:44:18.375Z,15.63
2023-03-25T12:47:11.620Z,15.89
2023-03-25T12:49:48.109Z,15.74
2023-03-25T12:52:29.524Z,15.72
2023-03-25T12:55:25.686Z,15.43
2023-03-25T12:58:14.312Z,15.22
2023-03-25T13:00:50.598Z,15.26
2023-03-25T13:03:31.495Z,15.58
2023-03-25T13:06:23.462Z,15.18
2023-03-25T13:09:19.716Z,14.80
2023-03-25T13:12:00.950Z,14.82
2023-03-25T13:14:51.447Z,15.19
2023-03-25T13:17:27.106Z,15.14
2023-03-25T13:19:58.286Z,15.51
2023-03-25T13:22:29.702Z,15.58
2023-03-25T13:25:03.695Z,15.32
2023-03-25T13:27:41.476Z,15.61
2023-03-25T13:30:18.048Z,15.54
2023-03-25T13:32:50.299Z,15.22
2023-03-25T13:35:23.357Z,14.92
2023-03-25T13:37:53.907Z,15.20
2023-03-25T13:40:40.589Z,15.28
2023-03-25T13:43:19.288Z,15.39
2023-03-25T13:46:06.045Z,15.52
2023-03-25T13:48:36.940Z,15.72
2023-03-25T13:51:05.295Z,15.40
2023-03-25T13:53:34.896Z,15.71
2023-03-25T13:56:14.465Z,15.28
2023-03-25T13:58:51.484Z,15.87
2023-03-25T14:01:41.729Z,15.51
2023-03-25T14:04:41.297Z,15.29
2023-03-25T14:07:27.524Z,15.04
2023-03-25T14:10:14.095Z,14.87
2023-03-25T14:12:45.808Z,15.09
2023-03-25T14:15:16.919Z,14.94
2023-03-25T14:17:47.038Z,14.95
2023-03-25T14:20:41.625Z,14.84
2023-03-25T14:23:17.121Z,14.78
2023-03-25T14:25:48.423Z,15.13
2023-03-25T14:28:19.467Z,14.85
2023-03-25T14:31:07.477Z,14.70
2023-03-25T14:34:00.180Z,14.93
2023-03-25T14:36:38.767Z,14.77
2023-03-25T14:39:32.357Z,14.94
2023-03-25T14:42:11.485Z,14.69
2023-03-25T14:44:49.512Z,14.64
2023-03-25T14:47:20.777Z,15.17
2023-03-25T14:50:00.492Z,15.43
2023-03-25T14:52:43.766Z,14.93
2023-03-25T14:55:22.203Z,14.61
2023-03-25T14:57:52.400Z,14.58
2023-03-25T15:00:29.358Z,14.53
2023-03-25T15:03:04.693Z,14.35
2023-03-25T15:05:34.332Z,14.31
2023-03-25T15:08:04.873Z,14.54
2023-03-25T15:10:39.470Z,14.41
2023-03-25T15:13:10.555Z,14.70
2023-03-25T15:15:52.193Z,14.29
2023-03-25T15:18:37.273Z,14.08
2023-03-25T15:21:11.867Z,14.63
2023-03-25T15:23:51.957Z,14.12
2023-03-25T15:26:32.374Z,14.99
2023-03-25T15:29:13.677Z,14.83
2023-03-25T15:31:55.553Z,14.40
2023-03-25T15:34:45.522Z,15.02
2023-03-25T15:37:47.054Z,14.93
2023-03-25T15:40:52.647Z,14.99
2023-03-25T15:43:32.838Z,14.61
2023-03-25T15:46:41.918Z,14.25
2023-03-25T15:49:21.725Z,14.94
2023-03-25T15:52:11.332Z,14.46
2023-03-25T15:54:56.991Z,14.73
2023-03-25T15:57:57.167Z,14.77
2023-03-25T16:00:58.225Z,15.04
2023-03-25T16:03:29.729Z,14.99
2023-03-25T16:06:00.738Z,15.09
2023-03-25T16:08:32.778Z,15.31
2023-03-25T16:11:21.447Z,15.00
2023-03-25T16:14:20.921Z,15.51
2023-03-25T16:16:52.031Z,15.40
2023-03-25T16:19:23.580Z,15.50
2023-03-25T16:21:52.962Z,15.26
2023-03-25T16:24:24.960Z,14.87
2023-03-25T16:26:52.838Z,15.07
2023-03-25T16:29:24.255Z,15.23
2023-03-25T16:31:56.573Z,14.48
2023-03-25T16:34:26.273Z,14.30
2023-03-25T16:36:54.325Z,14.46
2023-03-25T16:39:22.870Z,14.73
2023-03-25T16:41:52.797Z,14.60
2023-03-25T16:44:22.702Z,14.68
2023-03-25T16:46:52.426Z,14.15
2023-03-25T16:49:26.791Z,14.44
2023-03-25T16:51:55.557Z,14.74
2023-03-25T16:54:38.125Z,14.01
2023-03-25T16:57:07.731Z,13.85
2023-03-25T16:59:37.739Z,14.11
2023-03-25T17:02:30.174Z,13.82
2023-03-25T17:05:23.144Z,13.62
2023-03-25T17:07:57.406Z,13.83
2023-03-25T17:10:28.753Z,13.63
2023-03-25T17:13:24.128Z,13.68
2023-03-25T17:15:53.213Z,13.60
2023-03-25T17:18:25.792Z,13.56
2023-03-25T17:20:57.934Z,13.90
2023-03-25T17:23:37.283Z,13.99
2023-03-25T17:26:08.764Z,13.77
2023-03-25T17:28:38.258Z,15.04
2023-03-25T17:31:36.659Z,14.92
2023-03-25T17:34:07.067Z,14.50
2023-03-25T17:36:38.282Z,13.83
2023-03-25T17:39:17.922Z,13.35
2023-03-25T17:41:47.547Z,13.80
2023-03-25T17:44:16.939Z,14.00
2023-03-25T17:46:45.692Z,14.10
2023-03-25T17:49:17.567Z,13.90
2023-03-25T17:51:47.646Z,14.07
2023-03-25T17:54:15.855Z,14.08
2023-03-25T17:56:43.476Z,14.46
2023-03-25T17:59:24.395Z,14.49
2023-03-25T18:01:53.748Z,14.66
2023-03-25T18:04:22.364Z,14.40
2023-03-25T18:06:51.691Z,14.61
2023-03-25T18:09:25.099Z,14.48
2023-03-25T18:11:56.147Z,14.49
2023-03-25T18:14:26.531Z,13.46
2023-03-25T18:16:56.569Z,13.04
2023-03-25T18:19:32.386Z,12.78
2023-03-25T18:22:13.931Z,12.77
2023-03-25T18:24:47.402Z,12.57
2023-03-25T18:27:16.650Z,12.63
2023-03-25T18:29:45.446Z,12.31
2023-03-25T18:32:13.321Z,12.86
2023-03-25T18:34:41.633Z,12.60
2023-03-25T18:37:12.357Z,11.65
2023-03-25T18:39:40.554Z,12.54
2023-03-25T18:42:10.620Z,12.09
2023-03-25T18:44:39.489Z,11.46
2023-03-25T18:47:09.344Z,11.38
2023-03-25T18:49:39.100Z,12.10
2023-03-25T18:52:07.256Z,12.29
2023-03-25T18:54:35.680Z,12.10
2023-03-25T18:57:05.154Z,12.82
2023-03-25T18:59:33.549Z,12.52
2023-03-25T19:02:03.652Z,12.30
2023-03-25T19:04:33.986Z,12.95
2023-03-25T19:07:02.147Z,13.07
2023-03-25T19:09:32.456Z,12.82
2023-03-25T19:12:01.170Z,12.71
2023-03-25T19:14:30.018Z,12.46
2023-03-25T19:17:03.988Z,12.35
2023-03-25T19:19:33.375Z,12.87
2023-03-25T19:22:01.847Z,12.43
2023-03-25T19:24:30.487Z,13.03
2023-03-25T19:27:02.474Z,12.30
2023-03-25T19:29:32.930Z,11.41
2023-03-25T19:32:01.774Z,10.79
2023-03-25T19:34:31.916Z,10.41
2023-03-25T19:37:08.452Z,10.09
2023-03-25T19:39:37.569Z,10.60
2023-03-25T19:42:06.733Z,10.35
2023-03-25T19:44:35.003Z,10.26
2023-03-25T19:47:03.674Z,10.63
2023-03-25T19:49:39.748Z,10.27
2023-03-25T19:52:09.659Z,11.02
2023-03-25T19:54:38.483Z,10.43
2023-03-25T19:57:10.028Z,10.84
2023-03-25T19:59:39.244Z,10.20
2023-03-25T20:02:08.902Z,10.28
2023-03-25T20:04:38.062Z,10.16
2023-03-25T20:07:06.558Z,10.49
2023-03-25T20:09:36.240Z,11.47
2023-03-25T20:12:05.536Z,10.75
2023-03-25T20:14:34.380Z,11.01
2023-03-25T20:17:03.264Z,10.43
2023-03-25T20:19:31.523Z,10.17
2023-03-25T20:22:01.309Z,9.98
2023-03-25T20:24:30.430Z,10.04
2023-03-25T20:27:00.235Z,10.04
2023-03-25T20:29:28.762Z,10.18
2023-03-25T20:32:00.140Z,10.24
2023-03-25T20:34:28.721Z,11.00
2023-03-25T20:36:57.775Z,10.82
2023-03-25T20:39:26.515Z,10.52
2023-03-25T20:41:55.977Z,10.75
2023-03-25T20:44:26.078Z,10.19
2023-03-25T20:47:05.922Z,9.99
2023-03-25T20:49:38.126Z,10.21
2023-03-25T20:52:11.227Z,10.02
2023-03-25T20:54:39.877Z,9.95
2023-03-25T20:57:10.504Z,10.12
2023-03-25T20:59:39.015Z,10.10
2023-03-25T21:02:07.192Z,9.97
2023-03-25T21:04:35.685Z,10.00
2023-03-25T21:07:03.450Z,9.94
2023-03-25T21:09:32.041Z,9.99
2023-03-25T21:12:01.762Z,9.99
2023-03-25T21:14:29.786Z,10.14
2023-03-25T21:17:01.228Z,10.05
2023-03-25T21:19:29.331Z,10.03
2023-03-25T21:21:57.574Z,10.02
2023-03-25T21:24:25.636Z,10.09
2023-03-25T21:26:55.539Z,10.00
2023-03-25T21:29:23.154Z,10.02
2023-03-25T21:31:51.074Z,10.00
2023-03-25T21:34:18.934Z,10.02
2023-03-25T21:36:46.405Z,10.01
2023-03-25T21:39:14.281Z,10.00
2023-03-25T21:41:42.387Z,10.19
2023-03-25T21:44:10.728Z,10.41
2023-03-25T21:46:38.529Z,10.20
2023-03-25T21:49:06.595Z,10.18
2023-03-25T21:51:36.077Z,10.24
2023-03-25T21:54:03.625Z,10.21
2023-03-25T21:56:33.790Z,10.06
2023-03-25T21:59:05.651Z,10.00
2023-03-25T22:01:33.746Z,9.92
2023-03-25T22:04:02.046Z,9.97
2023-03-25T22:06:31.861Z,10.00
2023-03-25T22:08:59.458Z,9.94
2023-03-25T22:11:31.228Z,10.04
2023-03-25T22:13:58.642Z,10.02
2023-03-25T22:16:26.656Z,9.93
2023-03-25T22:18:54.369Z,9.76
2023-03-25T22:21:29.578Z,9.79
2023-03-25T22:23:59.595Z,9.65
2023-03-25T22:26:28.873Z,9.68
2023-03-25T22:29:01.652Z,9.51
2023-03-25T22:31:31.255Z,9.69
2023-03-25T22:34:03.634Z,9.62
2023-03-25T22:36:33.190Z,9.53
2023-03-25T22:39:01.170Z,9.40
2023-03-25T22:41:28.679Z,9.39
2023-03-25T22:43:56.221Z,9.60
2023-03-25T22:46:24.659Z,9.88
2023-03-25T22:48:52.166Z,9.45
2023-03-25T22:51:21.005Z,9.21
2023-03-25T22:53:48.778Z,9.99
2023-03-25T22:56:16.244Z,9.90
2023-03-25T22:58:43.802Z,9.67
2023-03-25T23:01:38.945Z,9.28
2023-03-25T23:04:06.675Z,9.55
2023-03-25T23:06:36.315Z,9.04
2023-03-25T23:09:06.373Z,9.71
2023-03-25T23:11:34.363Z,9.77
2023-03-25T23:14:10.148Z,9.13
2023-03-25T23:16:39.007Z,9.05
2023-03-25T23:19:07.159Z,9.03
2023-03-25T23:21:34.767Z,8.90
2023-03-25T23:24:03.860Z,9.20
2023-03-25T23:26:35.733Z,8.74
2023-03-25T23:29:05.688Z,8.68
2023-03-25T23:31:35.209Z,8.47
2023-03-25T23:34:07.654Z,8.58
2023-03-25T23:36:36.864Z,8.53
2023-03-25T23:39:07.301Z,8.57
2023-03-25T23:41:35.653Z,8.75
2023-03-25T23:44:04.287Z,8.63
2023-03-25T23:46:32.342Z,8.39
2023-03-25T23:49:03.304Z,8.34
2023-03-25T23:51:33.657Z,8.39
2023-03-25T23:54:02.313Z,8.22
2023-03-25T23:56:30.863Z,8.17
2023-03-25T23:58:59.314Z,8.34
